createdAt,value
2019-04-14T00:01:14.902Z,2.20
2019-04-14T00:03:47.535Z,2.20
2019-04-14T00:06:18.089Z,2.16
2019-04-14T00:08:47.988Z,2.12
2019-04-14T00:11:19.010Z,2.13
2019-04-14T00:13:48.735Z,2.16
2019-04-14T00:16:18.499Z,2.20
2019-04-14T00:18:49.098Z,2.26
2019-04-14T00:21:19.390Z,2.39
2019-04-14T00:23:50.100Z,2.34
2019-04-14T00:26:31.782Z,2.43
2019-04-14T00:29:02.671Z,2.50
2019-04-14T00:31:32.956Z,2.47
2019-04-14T00:34:24.586Z,2.60
2019-04-14T00:37:09.935Z,2.63
2019-04-14T00:39:40.839Z,2.57
2019-04-14T00:42:19.143Z,2.55
2019-04-14T00:44:51.737Z,2.55
2019-04-14T00:47:26.807Z,2.60
2019-04-14T00:49:57.302Z,2.60
2019-04-14T00:52:27.685Z,2.56
2019-04-14T00:54:58.465Z,2.52
2019-04-14T00:57:29.025Z,2.44
2019-04-14T00:59:59.542Z,2.48
2019-04-14T01:02:29.726Z,2.46
2019-04-14T01:05:00.123Z,2.44
2019-04-14T01:07:30.505Z,2.45
2019-04-14T01:10:00.147Z,2.48
2019-04-14T01:12:30.003Z,2.46
2019-04-14T01:15:00.722Z,2.50
2019-04-14T01:17:30.910Z,2.42
2019-04-14T01:20:01.468Z,2.40
2019-04-14T01:22:31.503Z,2.40
2019-04-14T01:25:02.280Z,2.48
2019-04-14T01:27:32.089Z,2.40
2019-04-14T01:30:02.656Z,2.38
2019-04-14T01:32:32.687Z,2.44
2019-04-14T01:35:03.180Z,2.37
2019-04-14T01:37:33.335Z,2.43
2019-04-14T01:40:03.403Z,2.36
2019-04-14T01:42:33.400Z,2.30
2019-04-14T01:45:05.719Z,2.30
2019-04-14T01:47:35.667Z,2.19
2019-04-14T01:50:05.999Z,2.28
2019-04-14T01:52:40.609Z,2.27
2019-04-14T01:55:13.350Z,2.31
2019-04-14T01:58:03.315Z,2.21
2019-04-14T02:00:44.573Z,2.14
2019-04-14T02:03:14.913Z,2.12
2019-04-14T02:05:45.320Z,2.17
2019-04-14T02:08:15.505Z,2.12
2019-04-14T02:10:45.604Z,2.12
2019-04-14T02:13:15.722Z,2.20
2019-04-14T02:15:46.484Z,2.16
2019-04-14T02:18:16.419Z,2.05
2019-04-14T02:20:46.850Z,2.02
2019-04-14T02:23:17.109Z,2.02
2019-04-14T02:25:47.213Z,1.96
2019-04-14T02:28:17.750Z,1.95
2019-04-14T02:30:56.696Z,1.89
2019-04-14T02:33:50.934Z,1.77
2019-04-14T02:36:21.818Z,1.82
2019-04-14T02:46:28.574Z,1.72
2019-04-14T02:49:03.906Z,1.75
2019-04-14T02:51:29.530Z,1.85
2019-04-14T02:54:01.171Z,1.77
2019-04-14T02:56:34.390Z,1.77
2019-04-14T03:01:31.282Z,1.76
2019-04-14T03:03:58.456Z,1.75
2019-04-14T03:06:33.291Z,1.70
2019-04-14T03:09:12.976Z,1.64
2019-04-14T03:11:40.258Z,1.55
2019-04-14T03:14:11.581Z,1.57
2019-04-14T03:17:05.759Z,1.54
2019-04-14T03:19:48.241Z,1.55
2019-04-14T03:25:00.630Z,1.50
2019-04-14T03:27:48.210Z,1.41
2019-04-14T03:33:18.402Z,1.50
2019-04-14T03:40:37.328Z,1.46
2019-04-14T03:43:09.885Z,1.46
2019-04-14T03:45:45.112Z,1.44
2019-04-14T03:50:37.402Z,1.49
2019-04-14T03:53:19.175Z,1.49
2019-04-14T03:55:55.380Z,1.62
2019-04-14T03:58:20.608Z,1.66
2019-04-14T04:00:51.501Z,1.62
2019-04-14T04:03:21.816Z,1.72
2019-04-14T04:05:52.201Z,1.70
2019-04-14T04:08:22.383Z,1.79
2019-04-14T04:11:02.121Z,1.75
2019-04-14T04:13:32.346Z,1.76
2019-04-14T04:16:12.047Z,1.72
2019-04-14T04:18:52.840Z,1.75
2019-04-14T04:21:14.706Z,1.67
2019-04-14T04:23:49.207Z,1.72
2019-04-14T04:26:23.393Z,1.73
2019-04-14T04:29:04.763Z,1.76
2019-04-14T04:31:46.119Z,1.76
2019-04-14T04:34:25.079Z,1.85
2019-04-14T04:37:06.317Z,1.80
2019-04-14T04:39:49.598Z,1.78
2019-04-14T04:42:19.824Z,1.76
2019-04-14T04:44:50.906Z,1.75
2019-04-14T04:47:20.935Z,1.74
2019-04-14T04:49:51.184Z,1.76
2019-04-14T04:52:21.306Z,1.68
2019-04-14T04:54:51.647Z,1.68
2019-04-14T04:57:22.070Z,1.72
2019-04-14T04:59:51.770Z,1.61
2019-04-14T05:02:22.092Z,1.61
2019-04-14T05:04:52.653Z,1.58
2019-04-14T05:07:23.120Z,1.60
2019-04-14T05:10:13.194Z,1.61
2019-04-14T05:12:47.987Z,1.50
2019-04-14T05:15:31.288Z,1.68
2019-04-14T05:18:00.830Z,1.62
2019-04-14T05:20:31.354Z,2.73
2019-04-14T05:23:01.570Z,3.77
2019-04-14T05:25:31.823Z,3.96
2019-04-14T05:28:02.568Z,4.59
2019-04-14T05:30:32.891Z,4.91
2019-04-14T05:33:03.059Z,5.04
2019-04-14T05:35:33.399Z,4.82
2019-04-14T05:38:04.095Z,4.35
2019-04-14T05:40:34.321Z,3.85
2019-04-14T05:43:04.539Z,3.48
2019-04-14T05:45:35.092Z,3.23
2019-04-14T05:48:05.345Z,3.06
2019-04-14T05:50:35.714Z,3.08
2019-04-14T05:53:06.492Z,3.20
2019-04-14T05:55:37.273Z,2.97
2019-04-14T05:58:07.933Z,3.08
2019-04-14T06:00:39.408Z,3.46
2019-04-14T06:03:10.189Z,4.04
2019-04-14T06:05:40.359Z,4.39
2019-04-14T06:08:09.976Z,5.03
2019-04-14T06:10:39.561Z,4.81
2019-04-14T06:13:11.685Z,4.31
2019-04-14T06:15:40.548Z,5.04
2019-04-14T06:18:10.065Z,5.58
2019-04-14T06:20:39.656Z,5.91
2019-04-14T06:23:09.242Z,6.12
2019-04-14T06:25:38.773Z,6.38
2019-04-14T06:28:08.290Z,6.91
2019-04-14T06:30:39.442Z,6.51
2019-04-14T06:33:10.700Z,5.83
2019-04-14T06:35:41.866Z,5.68
2019-04-14T06:38:19.080Z,6.05
2019-04-14T06:40:50.224Z,5.95
2019-04-14T06:43:19.786Z,5.79
2019-04-14T06:45:49.379Z,5.34
2019-04-14T06:48:18.961Z,5.46
2019-04-14T06:50:48.582Z,6.08
2019-04-14T06:53:18.084Z,6.30
2019-04-14T06:55:47.779Z,6.47
2019-04-14T06:58:17.368Z,6.54
2019-04-14T07:00:46.953Z,6.51
2019-04-14T07:03:16.484Z,6.74
2019-04-14T07:05:46.360Z,6.30
2019-04-14T07:08:15.967Z,6.13
2019-04-14T07:10:45.565Z,6.40
2019-04-14T07:13:15.092Z,6.98
2019-04-14T07:15:45.021Z,6.71
2019-04-14T07:18:14.541Z,6.46
2019-04-14T07:20:44.082Z,5.97
2019-04-14T07:23:13.608Z,5.85
2019-04-14T07:25:43.209Z,6.29
2019-04-14T07:28:12.794Z,6.95
2019-04-14T07:30:46.565Z,7.11
2019-04-14T07:33:33.946Z,7.59
2019-04-14T07:36:14.235Z,8.07
2019-04-14T07:38:48.118Z,8.35
2019-04-14T07:41:23.539Z,8.09
2019-04-14T07:44:00.817Z,8.07
2019-04-14T07:46:34.894Z,8.02
2019-04-14T07:49:07.033Z,8.12
2019-04-14T07:51:43.069Z,8.23
2019-04-14T07:54:23.186Z,8.40
2019-04-14T07:56:57.327Z,8.21
2019-04-14T07:59:34.107Z,8.35
2019-04-14T08:02:06.471Z,8.15
2019-04-14T08:04:37.708Z,8.04
2019-04-14T08:07:07.226Z,7.77
2019-04-14T08:09:36.869Z,7.72
2019-04-14T08:12:06.534Z,7.19
2019-04-14T08:14:36.066Z,7.64
2019-04-14T08:17:05.700Z,7.90
2019-04-14T08:19:35.242Z,7.70
2019-04-14T08:22:04.933Z,8.03
2019-04-14T08:24:34.519Z,7.97
2019-04-14T08:27:04.050Z,8.18
2019-04-14T08:29:33.619Z,8.79
2019-04-14T08:32:03.210Z,8.90
2019-04-14T08:34:32.726Z,8.38
2019-04-14T08:37:02.335Z,8.53
2019-04-14T08:39:31.846Z,8.68
2019-04-14T08:42:05.543Z,8.85
2019-04-14T08:44:39.605Z,9.28
2019-04-14T08:47:11.724Z,8.95
2019-04-14T08:49:42.971Z,8.62
2019-04-14T08:52:30.098Z,8.51
2019-04-14T08:55:01.356Z,8.73
2019-04-14T08:57:41.070Z,9.18
2019-04-14T09:00:15.567Z,9.65
2019-04-14T09:02:44.837Z,9.59
2019-04-14T09:05:31.474Z,9.77
2019-04-14T09:08:05.344Z,9.77
2019-04-14T09:10:48.565Z,10.01
2019-04-14T09:13:18.088Z,10.16
2019-04-14T09:15:47.594Z,9.96
2019-04-14T09:18:17.182Z,9.54
2019-04-14T09:20:52.456Z,9.12
2019-04-14T09:23:18.004Z,8.72
2019-04-14T09:25:48.147Z,8.60
2019-04-14T09:28:17.725Z,8.38
2019-04-14T09:30:47.277Z,8.42
2019-04-14T09:33:16.785Z,8.38
2019-04-14T09:35:46.317Z,8.30
2019-04-14T09:38:15.902Z,8.32
2019-04-14T09:40:45.434Z,8.27
2019-04-14T09:43:15.132Z,8.41
2019-04-14T09:45:44.664Z,8.44
2019-04-14T09:48:14.183Z,8.48
2019-04-14T09:50:45.116Z,8.49
2019-04-14T09:53:14.855Z,8.49
2019-04-14T09:55:44.347Z,8.44
2019-04-14T09:58:14.050Z,8.55
2019-04-14T10:00:43.628Z,8.57
2019-04-14T10:03:13.284Z,8.58
2019-04-14T10:05:43.001Z,8.49
2019-04-14T10:08:12.580Z,8.48
2019-04-14T10:10:42.260Z,8.60
2019-04-14T10:13:11.920Z,8.49
2019-04-14T10:15:41.594Z,8.23
2019-04-14T10:18:11.245Z,8.16
2019-04-14T10:20:40.912Z,8.10
2019-04-14T10:23:10.507Z,7.99
2019-04-14T10:25:40.020Z,8.02
2019-04-14T10:28:09.540Z,7.91
2019-04-14T10:30:39.126Z,7.90
2019-04-14T10:33:08.667Z,7.87
2019-04-14T10:35:39.182Z,7.87
2019-04-14T10:38:08.864Z,7.91
2019-04-14T10:40:38.510Z,8.09
2019-04-14T10:43:08.174Z,8.31
2019-04-14T10:45:37.710Z,8.49
2019-04-14T10:48:07.296Z,8.64
2019-04-14T10:50:37.576Z,8.80
2019-04-14T10:53:07.228Z,9.12
2019-04-14T10:55:36.885Z,9.28
2019-04-14T10:58:06.530Z,9.48
2019-04-14T11:00:36.372Z,9.57
2019-04-14T11:03:06.299Z,9.53
2019-04-14T11:05:43.344Z,9.61
2019-04-14T11:08:12.935Z,9.65
2019-04-14T11:10:42.445Z,9.65
2019-04-14T11:13:12.096Z,9.54
2019-04-14T11:15:41.681Z,9.47
2019-04-14T11:18:11.202Z,9.45
2019-04-14T11:20:40.809Z,9.33
2019-04-14T11:23:10.495Z,9.34
2019-04-14T11:25:40.022Z,9.25
2019-04-14T11:28:09.537Z,8.97
2019-04-14T11:30:39.334Z,8.89
2019-04-14T11:33:13.196Z,8.99
2019-04-14T11:35:51.475Z,9.19
2019-04-14T11:38:20.746Z,9.43
2019-04-14T11:40:51.911Z,9.68
2019-04-14T11:43:21.587Z,9.71
2019-04-14T11:45:51.234Z,9.68
2019-04-14T11:48:21.052Z,9.71
2019-04-14T11:50:50.673Z,9.71
2019-04-14T11:53:20.280Z,9.63
2019-04-14T11:55:49.803Z,9.71
2019-04-14T11:58:19.389Z,9.58
2019-04-14T12:01:06.479Z,9.73
2019-04-14T12:03:43.840Z,9.74
2019-04-14T12:06:30.984Z,9.75
2019-04-14T12:09:00.443Z,9.76
2019-04-14T12:11:30.066Z,9.72
2019-04-14T12:13:59.622Z,9.78
2019-04-14T12:16:29.219Z,9.85
2019-04-14T12:18:58.745Z,9.93
2019-04-14T12:21:28.375Z,9.95
2019-04-14T12:23:57.896Z,9.92
2019-04-14T12:26:27.443Z,10.04
2019-04-14T12:28:59.165Z,10.04
2019-04-14T12:31:28.898Z,10.00
2019-04-14T12:33:58.434Z,10.04
2019-04-14T12:36:28.112Z,10.27
2019-04-14T12:38:57.986Z,10.59
2019-04-14T12:41:41.526Z,10.38
2019-04-14T12:44:12.796Z,10.44
2019-04-14T12:46:44.275Z,10.49
2019-04-14T12:49:16.404Z,10.59
2019-04-14T12:51:55.835Z,10.75
2019-04-14T12:54:26.710Z,10.82
2019-04-14T12:56:56.305Z,10.93
2019-04-14T12:59:26.604Z,11.16
2019-04-14T13:02:14.381Z,11.34
2019-04-14T13:04:43.972Z,11.30
2019-04-14T13:07:13.647Z,11.38
2019-04-14T13:09:43.316Z,11.42
2019-04-14T13:12:13.155Z,11.66
2019-04-14T13:14:43.179Z,11.88
2019-04-14T13:17:12.812Z,12.21
2019-04-14T13:19:42.432Z,12.44
2019-04-14T13:22:12.134Z,12.53
2019-04-14T13:24:41.762Z,12.24
2019-04-14T13:27:11.496Z,11.84
2019-04-14T13:29:41.194Z,11.93
2019-04-14T13:32:10.736Z,11.93
2019-04-14T13:34:40.328Z,11.60
2019-04-14T13:37:09.951Z,11.41
2019-04-14T13:39:39.536Z,11.28
2019-04-14T13:42:09.073Z,11.20
2019-04-14T13:44:38.641Z,11.20
2019-04-14T13:47:08.157Z,11.14
2019-04-14T13:49:37.759Z,11.31
2019-04-14T13:52:07.428Z,11.24
2019-04-14T13:54:37.060Z,11.33
2019-04-14T13:57:06.697Z,11.36
2019-04-14T13:59:36.290Z,11.46
2019-04-14T14:02:06.136Z,11.96
2019-04-14T14:04:35.709Z,12.25
2019-04-14T14:07:06.287Z,12.40
2019-04-14T14:09:36.013Z,12.74
2019-04-14T14:12:11.464Z,12.96
2019-04-14T14:14:58.632Z,13.60
2019-04-14T14:17:29.932Z,13.94
2019-04-14T14:20:03.874Z,13.93
2019-04-14T14:22:41.100Z,13.58
2019-04-14T14:25:15.145Z,13.31
2019-04-14T14:27:44.706Z,13.15
2019-04-14T14:30:16.176Z,12.97
2019-04-14T14:32:45.761Z,12.50
2019-04-14T14:35:15.449Z,12.37
2019-04-14T14:37:44.979Z,12.14
2019-04-14T14:40:14.796Z,12.03
2019-04-14T14:42:44.386Z,11.96
2019-04-14T14:45:21.373Z,11.89
2019-04-14T14:47:52.648Z,11.87
2019-04-14T14:50:24.721Z,11.68
2019-04-14T14:52:54.235Z,11.75
2019-04-14T14:55:23.781Z,12.25
2019-04-14T14:57:53.308Z,13.09
2019-04-14T15:00:24.740Z,13.75
2019-04-14T15:02:54.398Z,14.45
2019-04-14T15:05:23.966Z,14.74
2019-04-14T15:07:53.579Z,15.03
2019-04-14T15:10:23.235Z,15.38
2019-04-14T15:12:52.843Z,15.39
2019-04-14T15:15:22.435Z,15.60
2019-04-14T15:17:51.994Z,15.17
2019-04-14T15:20:21.662Z,15.21
2019-04-14T15:22:52.396Z,15.48
2019-04-14T15:25:22.257Z,15.87
2019-04-14T15:27:51.911Z,15.89
2019-04-14T15:30:22.507Z,15.59
2019-04-14T15:32:52.155Z,15.66
2019-04-14T15:35:21.733Z,15.89
2019-04-14T15:37:51.343Z,15.83
2019-04-14T15:40:21.013Z,16.00
2019-04-14T15:42:50.548Z,16.23
2019-04-14T15:45:20.133Z,16.23
2019-04-14T15:47:49.813Z,16.47
2019-04-14T15:50:19.441Z,16.40
2019-04-14T15:52:49.085Z,16.46
2019-04-14T15:55:19.564Z,15.92
2019-04-14T15:58:07.081Z,15.58
2019-04-14T16:00:45.388Z,15.37
2019-04-14T16:03:25.518Z,15.57
2019-04-14T16:06:12.587Z,15.95
2019-04-14T16:08:49.470Z,15.99
2019-04-14T16:11:33.777Z,16.21
2019-04-14T16:14:05.077Z,16.35
2019-04-14T16:16:36.381Z,16.61
2019-04-14T16:19:07.980Z,16.66
2019-04-14T16:21:37.588Z,16.58
2019-04-14T16:24:07.347Z,16.68
2019-04-14T16:26:50.896Z,16.77
2019-04-14T16:29:22.125Z,16.78
2019-04-14T16:32:02.218Z,16.88
2019-04-14T16:34:39.409Z,16.87
2019-04-14T16:37:09.027Z,17.06
2019-04-14T16:39:38.551Z,16.89
2019-04-14T16:42:08.219Z,16.60
2019-04-14T16:44:37.838Z,16.45
2019-04-14T16:47:07.505Z,16.15
2019-04-14T16:49:37.128Z,15.92
2019-04-14T16:52:09.203Z,15.63
2019-04-14T16:54:39.666Z,15.29
2019-04-14T16:57:29.034Z,15.00
2019-04-14T16:59:58.638Z,14.38
2019-04-14T17:02:28.148Z,13.78
2019-04-14T17:04:57.678Z,13.57
2019-04-14T17:07:27.275Z,13.38
2019-04-14T17:09:56.822Z,13.26
2019-04-14T17:12:26.382Z,13.15
2019-04-14T17:15:03.380Z,13.03
2019-04-14T17:17:46.403Z,12.95
2019-04-14T17:20:20.552Z,12.85
2019-04-14T17:22:52.743Z,12.74
2019-04-14T17:25:28.833Z,12.52
2019-04-14T17:28:04.249Z,12.26
2019-04-14T17:30:40.975Z,12.27
2019-04-14T17:33:10.377Z,12.18
2019-04-14T17:35:47.394Z,12.12
2019-04-14T17:38:21.313Z,11.98
2019-04-14T17:40:55.699Z,11.88
2019-04-14T17:43:29.541Z,11.74
2019-04-14T17:46:00.693Z,11.56
2019-04-14T17:48:47.818Z,11.46
2019-04-14T17:51:21.745Z,11.26
2019-04-14T17:53:52.890Z,11.23
2019-04-14T17:56:24.296Z,11.18
2019-04-14T17:59:08.345Z,11.11
2019-04-14T18:01:42.210Z,11.05
2019-04-14T18:04:13.373Z,10.98
2019-04-14T18:06:47.126Z,10.92
2019-04-14T18:09:21.130Z,10.87
2019-04-14T18:12:01.334Z,10.82
2019-04-14T18:14:41.055Z,10.75
2019-04-14T18:17:15.048Z,10.66
2019-04-14T18:19:54.942Z,10.48
2019-04-14T18:22:24.595Z,10.32
2019-04-14T18:24:54.110Z,10.14
2019-04-14T18:27:23.731Z,9.98
2019-04-14T18:30:11.487Z,9.91
2019-04-14T18:32:45.519Z,9.86
2019-04-14T18:35:31.794Z,9.69
2019-04-14T18:38:19.046Z,9.58
2019-04-14T18:40:58.792Z,9.52
2019-04-14T18:43:38.600Z,9.43
2019-04-14T18:46:09.820Z,9.29
2019-04-14T18:48:56.941Z,9.15
2019-04-14T18:51:28.159Z,9.14
2019-04-14T18:54:14.075Z,9.11
2019-04-14T18:57:01.424Z,9.14
2019-04-14T18:59:38.361Z,9.17
2019-04-14T19:02:09.076Z,9.21
2019-04-14T19:04:38.664Z,9.15
2019-04-14T19:07:08.212Z,9.10
2019-04-14T19:09:37.728Z,9.11
2019-04-14T19:12:19.145Z,9.09
2019-04-14T19:14:50.367Z,9.07
2019-04-14T19:17:21.606Z,8.91
2019-04-14T19:20:01.254Z,8.94
2019-04-14T19:22:24.216Z,8.85
2019-04-14T19:25:06.931Z,8.82
2019-04-14T19:27:25.141Z,8.87
2019-04-14T19:29:54.648Z,8.91
2019-04-14T19:32:24.438Z,8.88
2019-04-14T19:34:54.031Z,8.96
2019-04-14T19:37:23.542Z,9.05
2019-04-14T19:39:53.155Z,9.16
2019-04-14T19:42:22.664Z,9.15
2019-04-14T19:44:52.205Z,9.10
2019-04-14T19:47:21.791Z,9.00
2019-04-14T19:49:51.303Z,8.89
2019-04-14T19:52:20.927Z,8.76
2019-04-14T19:54:50.425Z,8.59
2019-04-14T19:57:19.955Z,8.48
2019-04-14T19:59:50.249Z,8.40
2019-04-14T20:02:19.895Z,8.29
2019-04-14T20:04:49.517Z,8.15
2019-04-14T20:07:19.050Z,8.10
2019-04-14T20:09:48.652Z,8.04
2019-04-14T20:12:18.798Z,8.00
2019-04-14T20:14:48.445Z,7.96
2019-04-14T20:17:25.407Z,7.94
2019-04-14T20:19:56.590Z,7.92
2019-04-14T20:22:27.817Z,7.75
2019-04-14T20:25:14.662Z,7.70
2019-04-14T20:27:46.470Z,7.64
2019-04-14T20:30:32.633Z,7.63
2019-04-14T20:33:02.281Z,7.60
2019-04-14T20:35:31.861Z,7.61
2019-04-14T20:38:01.535Z,7.57
2019-04-14T20:40:31.114Z,7.55
2019-04-14T20:43:00.784Z,7.56
2019-04-14T20:45:30.432Z,7.54
2019-04-14T20:48:00.000Z,7.51
2019-04-14T20:50:29.525Z,7.47
2019-04-14T20:52:59.060Z,7.44
2019-04-14T20:55:28.650Z,7.39
2019-04-14T20:57:58.301Z,7.33
2019-04-14T21:00:28.136Z,7.27
2019-04-14T21:03:15.348Z,7.21
2019-04-14T21:05:52.205Z,7.17
2019-04-14T21:08:27.327Z,7.14
2019-04-14T21:11:02.307Z,7.09
2019-04-14T21:13:33.527Z,7.05
2019-04-14T21:16:12.868Z,6.89
2019-04-14T21:18:43.143Z,6.95
2019-04-14T21:21:29.511Z,6.99
2019-04-14T21:24:00.682Z,6.97
2019-04-14T21:26:47.766Z,6.91
2019-04-14T21:29:27.399Z,6.84
2019-04-14T21:31:58.585Z,6.78
2019-04-14T21:34:47.903Z,6.69
2019-04-14T21:37:24.767Z,6.65
2019-04-14T21:39:56.011Z,6.56
2019-04-14T21:42:25.621Z,6.49
2019-04-14T21:44:55.313Z,6.47
2019-04-14T21:47:24.819Z,6.44
2019-04-14T21:49:54.348Z,6.42
2019-04-14T21:52:28.116Z,6.36
2019-04-14T21:54:57.710Z,6.30
2019-04-14T21:57:40.670Z,6.25
2019-04-14T22:00:29.802Z,6.23
2019-04-14T22:03:09.745Z,6.17
2019-04-14T22:05:41.067Z,6.06
2019-04-14T22:08:18.048Z,6.03
2019-04-14T22:10:49.357Z,6.01
2019-04-14T22:13:19.034Z,5.91
2019-04-14T22:15:48.536Z,5.80
2019-04-14T22:18:18.713Z,5.77
2019-04-14T22:20:48.365Z,5.69
2019-04-14T22:23:18.042Z,5.66
2019-04-14T22:25:47.692Z,5.62
2019-04-14T22:28:17.373Z,5.58
2019-04-14T22:30:47.035Z,5.52
2019-04-14T22:33:16.683Z,5.52
2019-04-14T22:35:46.356Z,5.60
2019-04-14T22:38:16.004Z,5.56
2019-04-14T22:40:45.643Z,5.50
2019-04-14T22:43:15.229Z,5.37
2019-04-14T22:45:44.842Z,5.50
2019-04-14T22:48:14.566Z,5.50
2019-04-14T22:50:44.142Z,5.50
2019-04-14T22:53:13.815Z,5.51
2019-04-14T22:55:43.407Z,5.58
2019-04-14T22:58:13.028Z,5.65
2019-04-14T23:00:46.990Z,5.70
2019-04-14T23:03:18.327Z,5.71
2019-04-14T23:05:49.481Z,5.74
2019-04-14T23:08:35.736Z,5.71
2019-04-14T23:11:15.831Z,5.64
2019-04-14T23:14:03.240Z,5.64
2019-04-14T23:16:40.001Z,5.61
2019-04-14T23:19:14.250Z,5.53
2019-04-14T23:21:45.955Z,5.49
2019-04-14T23:24:17.269Z,5.42
2019-04-14T23:26:52.942Z,5.40
2019-04-14T23:29:18.285Z,5.37
2019-04-14T23:31:47.886Z,5.31
2019-04-14T23:34:17.472Z,5.31
2019-04-14T23:36:47.146Z,5.31
2019-04-14T23:39:16.742Z,5.12
2019-04-14T23:41:46.357Z,5.16
2019-04-14T23:44:16.020Z,5.10
2019-04-14T23:46:45.603Z,5.03
2019-04-14T23:49:15.214Z,5.00
2019-04-14T23:51:44.796Z,4.86
2019-04-14T23:54:14.382Z,4.78
2019-04-14T23:56:43.902Z,4.87
2019-04-14T23:59:13.511Z,4.87
